Mullion, United Kingdom
Current Conditions -  °F | °C
As of 4:50 PM on Tuesday 27 Jan 2015 (Local Time) from EGDR Reporting Station
Drizzle Drizzle  
Wind Chill: 38°   Ceiling: 2500
Heat Index: 45°   Visibility: 5mi
Dew Point: 43°   Wind: 13mph
Humidity: 93%   Direction: 270°W
Pressure: 30.33"   Gusts: NA
Location:  50.03°N, 5.24°W
Report Text: EGDR 271650Z 27011KT 8000 -DZ SCT014 SCT018 OVC025 07/06 Q1027 GRN NOSIG
Loading
Personal Weather Stations






























Interactive Weather Map New forecast layout! Learn more

10-Day Weather Forecast

Advertisements
Track Severe Weather on mobile